This is the latest recevied weather packets stored in our database for station/object KD9IXX-13. If no packets are shown the sender has not sent any weather packets the latest 1 day(s).
| Time | Temp. | Humidity | Pressure | Rain* | Wind** | Luminosity | Snow |
|---|---|---|---|---|---|---|---|
| 1778080202 | 11.67° C | 49% | 1016.1 hPa | 0 mm | - | 386 W/m² | - |
| 1778079003 | 11.11° C | 45% | 1015.9 hPa | 0 mm | - | 480 W/m² | - |
| 1778077202 | 10.56° C | 56% | 1016.1 hPa | 0 mm | - | 288 W/m² | - |
| 1778076302 | 11.11° C | 55% | 1016.1 hPa | 0 mm | - | 302 W/m² | - |
| 1778074202 | 9.44° C | 61% | 1015.6 hPa | 0 mm | - | 150 W/m² | - |
| 1778073902 | 8.89° C | 64% | 1015.6 hPa | 0 mm | - | 157 W/m² | - |
| 1778070902 | 7.78° C | 74% | 1015 hPa | 0 mm | - | 110 W/m² | - |
| 1778067603 | 5° C | 82% | 1014.6 hPa | 0 mm | - | 37 W/m² | - |
| 1778067302 | 4.44° C | 83% | 1014.1 hPa | 0 mm | - | 40 W/m² | - |
| 1778066403 | 4.44° C | 83% | 1014 hPa | 0 mm | - | 22 W/m² | - |
| 1778066102 | 4.44° C | 83% | 1013.9 hPa | 0 mm | - | 22 W/m² | - |
| 1778064902 | 3.33° C | 85% | 1013.8 hPa | 0 mm | - | 10 W/m² | - |
| 1778064002 | 2.78° C | 85% | 1013.7 hPa | 0 mm | - | 0 W/m² | - |
| 1778060702 | 5.56° C | 74% | 1013 hPa | 0 mm | - | 0 W/m² | - |
| 1778059502 | 5.56° C | 72% | 1013.2 hPa | 0 mm | - | 0 W/m² | - |
| 1778057102 | 6.11° C | 70% | 1013.1 hPa | 0 mm | - | 0 W/m² | - |
| 1778056502 | 6.11° C | 69% | 1013.1 hPa | 0 mm | - | 0 W/m² | - |
| 1778055302 | 6.11° C | 68% | 1012.9 hPa | 0 mm | - | 0 W/m² | - |
| 1778054103 | 6.11° C | 70% | 1013.1 hPa | 0 mm | - | 0 W/m² | - |
| 1778052602 | 7.22° C | 64% | 1012.5 hPa | 0 mm | - | 0 W/m² | - |
| 1778052302 | 7.22° C | 65% | 1012.3 hPa | 0 mm | - | 0 W/m² | - |
| 1778050502 | 7.78° C | 65% | 1012.1 hPa | 0 mm | - | 0 W/m² | - |
| 1778049602 | 7.78° C | 63% | 1012.2 hPa | 0 mm | - | 0 W/m² | - |
| 1778049002 | 7.78° C | 64% | 1012 hPa | 0 mm | - | 0 W/m² | - |
| 1778048402 | 8.33° C | 63% | 1012 hPa | 0 mm | - | 0 W/m² | - |
* Rain latest hour (hover to see other rain measurements)
** Current wind speed in m/s (hover to see current wind gust speed)